createdAt,value
2018-06-02T00:04:20.285Z,101015.53
2018-06-02T00:09:22.841Z,101011.03
2018-06-02T00:14:25.359Z,101016.25
2018-06-02T00:19:27.900Z,101028.64
2018-06-02T00:24:30.373Z,101027.73
2018-06-02T00:29:32.886Z,101024.81
2018-06-02T00:34:35.377Z,101027.49
2018-06-02T00:39:37.884Z,101025.95
2018-06-02T00:44:40.365Z,101036.48
2018-06-02T00:49:42.899Z,101032.55
2018-06-02T00:54:57.415Z,101033.39
2018-06-02T01:00:00.000Z,101036.84
2018-06-02T01:05:02.493Z,101042.97
2018-06-02T01:10:05.033Z,101045.49
2018-06-02T01:15:07.528Z,101039.03
2018-06-02T01:20:10.034Z,101041.95
2018-06-02T01:25:12.932Z,101044.95
2018-06-02T01:30:15.711Z,101054.45
2018-06-02T01:35:20.054Z,101062.69
2018-06-02T01:40:22.580Z,101067.08
2018-06-02T01:45:25.063Z,101063.95
2018-06-02T01:50:27.576Z,101068.64
2018-06-02T01:55:30.088Z,101072.27
2018-06-02T02:00:32.592Z,101064.57
2018-06-02T02:05:35.085Z,101068.93
2018-06-02T02:10:37.592Z,101065.30
2018-06-02T02:15:40.114Z,101071.86
2018-06-02T02:20:42.645Z,101069.14
2018-06-02T02:25:45.195Z,101074.14
2018-06-02T02:30:47.725Z,101079.89
2018-06-02T02:35:50.239Z,101076.87
2018-06-02T02:40:52.750Z,101083.20
2018-06-02T02:45:55.245Z,101080.52
2018-06-02T02:50:57.773Z,101081.13
2018-06-02T02:56:00.274Z,101087.91
2018-06-02T03:01:02.724Z,101090.38
2018-06-02T03:06:05.254Z,101088.42
2018-06-02T03:11:07.759Z,101088.22
2018-06-02T03:16:10.270Z,101092.06
2018-06-02T03:21:12.766Z,101090.41
2018-06-02T03:26:15.279Z,101097.68
2018-06-02T03:31:18.001Z,101092.17
2018-06-02T03:36:20.561Z,101091.22
2018-06-02T03:41:23.108Z,101091.13
2018-06-02T03:46:25.633Z,101095.30
2018-06-02T03:51:28.222Z,101099.03
2018-06-02T03:56:30.710Z,101098.49
2018-06-02T04:01:33.201Z,101095.69
2018-06-02T04:06:35.704Z,101100.41
2018-06-02T04:11:38.249Z,101099.97
2018-06-02T04:16:40.755Z,101096.55
2018-06-02T04:21:43.288Z,101105.46
2018-06-02T04:26:46.649Z,101102.75
2018-06-02T04:31:49.166Z,101109.14
2018-06-02T04:36:51.708Z,101112.09
2018-06-02T04:41:54.282Z,101110.42
2018-06-02T04:46:58.030Z,101113.62
2018-06-02T04:52:00.551Z,101116.38
2018-06-02T04:57:03.174Z,101128.42
2018-06-02T05:02:05.670Z,101121.52
2018-06-02T05:07:08.181Z,101131.45
2018-06-02T05:12:10.725Z,101130.73
2018-06-02T05:17:13.251Z,101139.66
2018-06-02T05:22:15.784Z,101138.78
2018-06-02T05:27:18.451Z,101142.14
2018-06-02T05:32:21.349Z,101146.95
2018-06-02T05:37:23.942Z,101148.50
2018-06-02T05:42:26.550Z,101156.13
2018-06-02T05:47:29.050Z,101153.90
2018-06-02T05:52:31.576Z,101152.81
2018-06-02T05:57:34.073Z,101153.23
2018-06-02T06:02:36.604Z,101145.47
2018-06-02T06:07:39.137Z,101144.16
2018-06-02T06:12:42.765Z,101151.93
2018-06-02T06:17:45.443Z,101151.16
2018-06-02T06:22:48.049Z,101160.28
2018-06-02T06:27:50.556Z,101157.81
2018-06-02T06:32:53.097Z,101161.14
2018-06-02T06:37:55.605Z,101160.88
2018-06-02T06:42:58.153Z,101163.69
2018-06-02T06:48:00.642Z,101151.74
2018-06-02T06:53:03.146Z,101147.77
2018-06-02T06:58:05.625Z,101148.05
2018-06-02T07:03:08.111Z,101148.19
2018-06-02T07:08:10.666Z,101147.02
2018-06-02T07:13:13.757Z,101149.37
2018-06-02T07:18:16.352Z,101155.14
2018-06-02T07:23:18.873Z,101155.79
2018-06-02T07:28:21.451Z,101160.53
2018-06-02T07:33:23.915Z,101161.11
2018-06-02T07:38:27.418Z,101158.56
2018-06-02T07:43:29.958Z,101165.98
2018-06-02T07:48:32.473Z,101159.84
2018-06-02T07:53:35.103Z,101168.98
2018-06-02T07:58:37.635Z,101171.52
2018-06-02T08:03:40.128Z,101170.31
2018-06-02T08:08:42.910Z,101172.91
2018-06-02T08:13:45.515Z,101171.63
2018-06-02T08:18:48.129Z,101170.34
2018-06-02T08:23:50.694Z,101172.19
2018-06-02T08:28:53.232Z,101171.81
2018-06-02T08:33:55.780Z,101198.09
2018-06-02T08:38:58.288Z,101188.16
2018-06-02T08:44:00.908Z,101205.48
2018-06-02T08:49:03.411Z,101198.84
2018-06-02T08:54:05.896Z,101200.84
2018-06-02T08:59:08.393Z,101196.64
2018-06-02T09:04:10.889Z,101199.05
2018-06-02T09:09:13.499Z,101202.38
2018-06-02T09:14:16.085Z,101205.28
2018-06-02T09:19:18.673Z,101201.24
2018-06-02T09:24:21.428Z,101213.91
2018-06-02T09:29:23.970Z,101218.35
2018-06-02T09:34:26.514Z,101207.30
2018-06-02T09:39:28.974Z,101216.63
2018-06-02T09:44:31.474Z,101217.45
2018-06-02T09:49:34.037Z,101217.94
2018-06-02T09:54:36.501Z,101206.52
2018-06-02T09:59:39.009Z,101206.67
2018-06-02T10:04:41.953Z,101211.73
2018-06-02T10:09:45.261Z,101198.14
2018-06-02T10:14:47.785Z,101189.52
2018-06-02T10:19:50.313Z,101179.66
2018-06-02T10:24:52.848Z,101190.89
2018-06-02T10:29:55.368Z,101186.63
2018-06-02T10:34:57.899Z,101191.00
2018-06-02T10:40:00.371Z,101191.47
2018-06-02T10:45:02.878Z,101188.39
2018-06-02T10:50:05.540Z,101189.30
2018-06-02T10:55:08.047Z,101188.61
2018-06-02T11:00:10.635Z,101189.82
2018-06-02T11:05:13.100Z,101185.41
2018-06-02T11:10:15.621Z,101185.52
2018-06-02T11:15:18.181Z,101192.36
2018-06-02T11:20:20.643Z,101199.86
2018-06-02T11:25:23.150Z,101189.17
2018-06-02T11:30:25.645Z,101200.03
2018-06-02T11:35:28.138Z,101200.86
2018-06-02T11:40:30.667Z,101209.92
2018-06-02T11:45:33.186Z,101192.31
2018-06-02T11:50:35.709Z,101178.95
2018-06-02T11:55:38.190Z,101181.27
2018-06-02T12:00:40.699Z,101207.55
2018-06-02T12:05:43.228Z,101197.93
2018-06-02T12:10:45.941Z,101193.78
2018-06-02T12:15:48.498Z,101187.44
2018-06-02T12:20:51.022Z,101204.58
2018-06-02T12:25:53.583Z,101203.95
2018-06-02T12:30:56.071Z,101202.84
2018-06-02T12:35:58.627Z,101202.84
2018-06-02T12:41:01.122Z,101201.42
2018-06-02T12:46:03.619Z,101197.79
2018-06-02T12:51:06.154Z,101195.98
2018-06-02T12:56:08.638Z,101200.61
2018-06-02T13:01:11.173Z,101205.21
2018-06-02T13:06:13.791Z,101200.23
2018-06-02T13:11:16.336Z,101196.49
2018-06-02T13:16:18.835Z,101194.44
2018-06-02T13:21:21.335Z,101189.05
2018-06-02T13:26:23.861Z,101189.45
2018-06-02T13:31:33.951Z,101181.23
2018-06-02T13:36:36.441Z,101180.72
2018-06-02T13:41:38.938Z,101179.68
2018-06-02T13:46:42.169Z,101175.13
2018-06-02T13:51:45.557Z,101174.09
2018-06-02T13:56:48.049Z,101162.77
2018-06-02T14:01:50.618Z,101162.28
2018-06-02T14:06:53.181Z,101165.83
2018-06-02T14:11:55.723Z,101171.43
2018-06-02T14:16:58.223Z,101166.27
2018-06-02T14:22:00.861Z,101177.80
2018-06-02T14:27:03.992Z,101182.78
2018-06-02T14:32:06.531Z,101188.58
2018-06-02T14:37:09.168Z,101197.59
2018-06-02T14:42:11.565Z,101196.52
2018-06-02T14:47:14.194Z,101195.20
2018-06-02T14:52:16.805Z,101196.98
2018-06-02T14:57:19.363Z,101194.11
2018-06-02T15:02:21.979Z,101196.92
2018-06-02T15:07:24.546Z,101191.41
2018-06-02T15:12:27.094Z,101194.38
2018-06-02T15:17:29.594Z,101189.72
2018-06-02T15:22:32.095Z,101184.28
2018-06-02T15:27:34.602Z,101193.81
2018-06-02T15:32:37.098Z,101184.50
2018-06-02T15:37:39.693Z,101188.11
2018-06-02T15:42:42.183Z,101196.23
2018-06-02T15:47:44.740Z,101213.65
2018-06-02T15:52:47.286Z,101213.95
2018-06-02T15:57:49.886Z,101221.25
2018-06-02T16:02:52.462Z,101219.08
2018-06-02T16:07:55.348Z,101222.34
2018-06-02T16:12:57.954Z,101226.11
2018-06-02T16:18:00.445Z,101228.46
2018-06-02T16:23:02.936Z,101237.00
2018-06-02T16:28:05.432Z,101227.52
2018-06-02T16:33:07.992Z,101229.66
2018-06-02T16:38:10.512Z,101229.87
2018-06-02T16:43:13.087Z,101232.28
2018-06-02T16:48:15.603Z,101234.97
2018-06-02T16:53:18.148Z,101253.38
2018-06-02T16:58:20.668Z,101259.51
2018-06-02T17:03:23.350Z,101260.31
2018-06-02T17:08:25.848Z,101263.66
2018-06-02T17:13:28.420Z,101266.99
2018-06-02T17:18:30.907Z,101267.67
2018-06-02T17:23:33.410Z,101266.73
2018-06-02T17:28:35.920Z,101255.69
2018-06-02T17:33:38.524Z,101256.31
2018-06-02T17:38:40.988Z,101265.97
2018-06-02T17:43:43.524Z,101263.64
2018-06-02T17:48:46.186Z,101266.20
2018-06-02T17:53:48.733Z,101255.11
2018-06-02T17:58:51.260Z,101269.35
2018-06-02T18:03:53.924Z,101278.91
2018-06-02T18:08:56.412Z,101275.56
2018-06-02T18:13:59.124Z,101273.38
2018-06-02T18:19:01.598Z,101266.03
2018-06-02T18:24:04.144Z,101263.84
2018-06-02T18:29:06.664Z,101273.45
2018-06-02T18:34:09.173Z,101275.66
2018-06-02T18:39:11.728Z,101279.39
2018-06-02T18:44:14.682Z,101274.50
2018-06-02T18:49:17.228Z,101282.13
2018-06-02T18:54:19.750Z,101290.80
2018-06-02T18:59:22.406Z,101287.77
2018-06-02T19:04:25.436Z,101289.98
2018-06-02T19:09:28.044Z,101295.20
2018-06-02T19:14:30.826Z,101294.26
2018-06-02T19:19:34.361Z,101293.78
2018-06-02T19:24:36.907Z,101287.87
2018-06-02T19:29:39.688Z,101293.44
2018-06-02T19:34:43.075Z,101290.44
2018-06-02T19:39:45.879Z,101298.21
2018-06-02T19:44:49.444Z,101308.06
2018-06-02T19:49:52.070Z,101307.91
2018-06-02T19:54:55.391Z,101317.97
2018-06-02T19:59:58.611Z,101313.73
2018-06-02T20:05:02.122Z,101311.16
2018-06-02T20:10:04.879Z,101311.47
2018-06-02T20:15:08.270Z,101314.15
2018-06-02T20:20:10.761Z,101312.83
2018-06-02T20:25:13.283Z,101312.61
2018-06-02T20:30:16.041Z,101306.70
2018-06-02T20:35:18.782Z,101309.34
2018-06-02T20:40:21.698Z,101306.85
2018-06-02T20:45:26.825Z,101299.62
2018-06-02T20:50:30.672Z,101299.75
2018-06-02T20:55:33.144Z,101306.28
2018-06-02T21:00:37.374Z,101316.30
2018-06-02T21:05:42.768Z,101312.05
2018-06-02T21:10:45.663Z,101306.50
2018-06-02T21:15:48.343Z,101322.27
2018-06-02T21:20:52.781Z,101316.83
2018-06-02T21:25:55.893Z,101320.63
2018-06-02T21:30:58.544Z,101321.47
2018-06-02T21:36:01.036Z,101332.92
2018-06-02T21:41:04.942Z,101337.77
2018-06-02T21:46:09.978Z,101330.09
2018-06-02T21:51:14.812Z,101340.27
2018-06-02T21:56:18.139Z,101344.66
2018-06-02T22:01:20.822Z,101354.19
2018-06-02T22:06:23.688Z,101354.60
2018-06-02T22:11:26.219Z,101357.38
2018-06-02T22:16:28.935Z,101351.94
2018-06-02T22:21:33.257Z,101352.91
2018-06-02T22:26:35.766Z,101356.52
2018-06-02T22:31:38.251Z,101350.42
2018-06-02T22:36:40.765Z,101350.22
2018-06-02T22:41:43.284Z,101350.81
2018-06-02T22:46:45.808Z,101352.41
2018-06-02T22:51:57.132Z,101354.22
2018-06-02T22:56:59.604Z,101356.75
2018-06-02T23:02:02.144Z,101366.51
2018-06-02T23:07:04.605Z,101364.41
2018-06-02T23:12:07.088Z,101366.72
2018-06-02T23:17:09.566Z,101366.10
2018-06-02T23:28:15.583Z,101376.41
2018-06-02T23:33:19.115Z,101377.13
2018-06-02T23:38:22.307Z,101373.78
2018-06-02T23:43:25.472Z,101372.97
2018-06-02T23:48:28.717Z,101368.50
2018-06-02T23:53:31.911Z,101369.85
2018-06-02T23:58:35.015Z,101367.34
